EmailTwitter


Observations de surface / Canada / CYYZ (71624)

Régions: Québec | Canada | États-Unis | Europe | France | UK | Ailleurs
Station
Affichage
Infos & localisation pour CYYZ (71624) | Aide pour décoder les METARs

Observations prises le 2019-01-20 à 08H37 UTC à TORONTO A, ON (CYYZ)

Etat du ciel: couvert.

Obstacle(s) à la visibilité: faible neige.

Température: -18.0 Celsius

Point de rosée: -21.0 Celsius

Humidité relative: 77%

Facteur vent: -30.

Facteur vent (rafales): -32.

Vents: Nord à 31 km/h ou 17 noeuds.

Rafale du vent: 44 km/h ou 24 noeuds.

Pression au niveau moyen de la mer: 101.07 kilopascals.

Calage altimétrique: 100.91 kilopascals ou 29.80 pouces de mercure.

Visibilité horizontale: 1.50 milles terrestres ou 2.40 kilomètres.

Hauteur du plafond: 335 mètres ( 1100 pieds ).

Observation METAR:

CYYZ 200837Z 36017G24KT 1 1/2SM -SN OVC011 M18/M21 A2980 RMK SN4NS4 SLP107=